createdAt,value
2023-10-20T00:00:08.912Z,96.32
2023-10-20T00:02:35.841Z,96.37
2023-10-20T00:05:06.381Z,96.44
2023-10-20T00:07:33.047Z,95.74
2023-10-20T00:10:01.059Z,96.05
2023-10-20T00:12:28.104Z,96.13
2023-10-20T00:14:54.846Z,96.21
2023-10-20T00:17:21.501Z,96.17
2023-10-20T00:19:48.992Z,95.80
2023-10-20T00:22:16.340Z,95.95
2023-10-20T00:24:45.294Z,96.18
2023-10-20T00:27:14.925Z,95.83
2023-10-20T00:29:42.155Z,95.92
2023-10-20T00:32:11.688Z,95.93
2023-10-20T00:34:41.068Z,95.56
2023-10-20T00:37:07.800Z,95.93
2023-10-20T00:39:36.132Z,95.70
2023-10-20T00:42:03.412Z,96.13
2023-10-20T00:44:30.523Z,95.75
2023-10-20T00:46:58.271Z,95.95
2023-10-20T00:49:24.959Z,95.43
2023-10-20T00:51:51.786Z,95.62
2023-10-20T00:54:18.525Z,95.73
2023-10-20T00:56:46.016Z,95.72
2023-10-20T00:59:12.813Z,95.96
2023-10-20T01:01:39.531Z,95.94
2023-10-20T01:04:07.185Z,95.58
2023-10-20T01:06:34.384Z,95.74
2023-10-20T01:09:01.086Z,95.82
2023-10-20T01:11:27.777Z,95.58
2023-10-20T01:13:54.406Z,95.98
2023-10-20T01:16:21.070Z,95.94
2023-10-20T01:18:47.729Z,96.17
2023-10-20T01:21:14.450Z,96.24
2023-10-20T01:23:41.531Z,96.08
2023-10-20T01:26:09.222Z,95.90
2023-10-20T01:28:35.966Z,96.18
2023-10-20T01:31:02.724Z,96.01
2023-10-20T01:33:29.437Z,96.39
2023-10-20T01:35:56.149Z,95.95
2023-10-20T01:38:22.851Z,96.19
2023-10-20T01:40:49.519Z,96.27
2023-10-20T01:43:16.283Z,95.98
2023-10-20T01:45:42.942Z,96.12
2023-10-20T01:48:10.327Z,96.26
2023-10-20T01:50:38.327Z,96.22
2023-10-20T01:53:05.437Z,96.31
2023-10-20T01:55:32.281Z,95.76
2023-10-20T01:57:59.986Z,96.08
2023-10-20T02:00:26.746Z,96.20
2023-10-20T02:02:53.541Z,95.61
2023-10-20T02:05:20.260Z,95.43
2023-10-20T02:07:46.876Z,95.77
2023-10-20T02:10:13.537Z,95.98
2023-10-20T02:12:40.242Z,95.47
2023-10-20T02:15:08.940Z,95.72
2023-10-20T02:17:36.373Z,95.62
2023-10-20T02:20:04.257Z,95.65
2023-10-20T02:22:30.931Z,96.24
2023-10-20T02:24:57.501Z,95.86
2023-10-20T02:27:24.144Z,96.40
2023-10-20T02:29:50.825Z,96.03
2023-10-20T02:32:17.448Z,96.41
2023-10-20T02:34:44.104Z,96.12
2023-10-20T02:37:13.334Z,96.47
2023-10-20T02:39:40.444Z,96.24
2023-10-20T02:42:07.097Z,96.50
2023-10-20T02:44:33.889Z,96.09
2023-10-20T02:47:00.783Z,96.22
2023-10-20T02:49:27.443Z,96.50
2023-10-20T02:51:54.046Z,96.31
2023-10-20T02:54:20.841Z,96.48
2023-10-20T02:56:47.464Z,96.46
2023-10-20T02:59:14.228Z,96.68
2023-10-20T03:01:41.406Z,96.27
2023-10-20T03:04:08.330Z,96.42
2023-10-20T03:06:35.294Z,96.32
2023-10-20T03:09:02.083Z,96.62
2023-10-20T03:11:28.829Z,96.63
2023-10-20T03:13:55.664Z,96.58
2023-10-20T03:16:23.090Z,96.48
2023-10-20T03:18:49.727Z,96.21
2023-10-20T03:21:16.486Z,96.34
2023-10-20T03:23:44.965Z,96.47
2023-10-20T03:26:13.500Z,96.89
2023-10-20T03:28:40.895Z,96.66
2023-10-20T03:31:08.522Z,96.36
2023-10-20T03:33:35.188Z,96.41
2023-10-20T03:36:05.093Z,96.71
2023-10-20T03:38:32.336Z,96.22
2023-10-20T03:41:08.917Z,96.44
2023-10-20T03:43:36.898Z,96.30
2023-10-20T03:46:05.494Z,96.43
2023-10-20T03:48:34.682Z,96.23
2023-10-20T03:51:01.533Z,96.32
2023-10-20T03:53:28.485Z,95.81
2023-10-20T03:56:13.889Z,95.95
2023-10-20T03:58:43.367Z,95.88
2023-10-20T04:01:10.481Z,95.93
2023-10-20T04:03:53.627Z,96.33
2023-10-20T04:06:23.638Z,96.13
2023-10-20T04:08:50.487Z,96.04
2023-10-20T04:11:17.247Z,96.09
2023-10-20T04:13:43.840Z,96.31
2023-10-20T04:16:14.858Z,96.75
2023-10-20T04:18:42.945Z,96.54
2023-10-20T04:21:12.790Z,97.13
2023-10-20T04:23:39.858Z,97.23
2023-10-20T04:26:17.247Z,97.07
2023-10-20T04:28:49.002Z,96.99
2023-10-20T04:31:36.591Z,96.99
2023-10-20T04:34:23.963Z,96.97
2023-10-20T04:37:09.155Z,97.56
2023-10-20T04:39:54.611Z,97.27
2023-10-20T04:42:36.437Z,97.45
2023-10-20T04:45:22.309Z,97.04
2023-10-20T04:48:12.113Z,96.61
2023-10-20T04:50:53.472Z,96.77
2023-10-20T04:53:38.656Z,96.67
2023-10-20T04:56:17.621Z,96.26
2023-10-20T04:58:50.407Z,96.77
2023-10-20T05:01:40.187Z,96.16
2023-10-20T05:04:36.245Z,96.12
2023-10-20T05:07:11.446Z,95.66
2023-10-20T05:09:51.154Z,95.77
2023-10-20T05:12:17.732Z,95.58
2023-10-20T05:14:44.985Z,95.47
2023-10-20T05:17:15.460Z,95.59
2023-10-20T05:19:42.205Z,95.53
2023-10-20T05:22:10.465Z,95.62
2023-10-20T05:24:37.252Z,95.60
2023-10-20T05:27:04.964Z,95.60
2023-10-20T05:29:32.101Z,95.13
2023-10-20T05:31:59.649Z,95.42
2023-10-20T05:34:26.379Z,95.19
2023-10-20T05:36:54.577Z,95.20
2023-10-20T05:39:22.727Z,95.22
2023-10-20T05:41:49.534Z,95.07
2023-10-20T05:44:19.261Z,94.84
2023-10-20T05:46:46.590Z,95.09
2023-10-20T05:49:13.237Z,94.96
2023-10-20T05:51:40.148Z,94.75
2023-10-20T05:54:06.940Z,95.16
2023-10-20T05:56:33.579Z,95.30
2023-10-20T05:59:00.396Z,95.26
2023-10-20T06:01:27.050Z,95.19
2023-10-20T06:03:53.843Z,94.84
2023-10-20T06:06:20.536Z,94.75
2023-10-20T06:08:47.165Z,94.44
2023-10-20T06:11:14.093Z,94.45
2023-10-20T06:13:40.788Z,94.38
2023-10-20T06:16:12.159Z,94.26
2023-10-20T06:18:43.820Z,94.53
2023-10-20T06:21:15.690Z,94.70
2023-10-20T06:23:42.757Z,94.47
2023-10-20T06:26:09.902Z,94.41
2023-10-20T06:28:36.538Z,94.19
2023-10-20T06:31:22.014Z,94.32
2023-10-20T06:33:49.929Z,93.93
2023-10-20T06:36:23.695Z,93.84
2023-10-20T06:38:50.482Z,93.45
2023-10-20T06:41:17.347Z,93.82
2023-10-20T06:43:47.844Z,93.94
2023-10-20T06:46:15.512Z,93.95
2023-10-20T06:48:42.370Z,94.15
2023-10-20T06:51:09.374Z,93.70
2023-10-20T06:53:36.244Z,93.65
2023-10-20T06:56:15.496Z,93.74
2023-10-20T06:58:44.161Z,93.20
2023-10-20T07:01:11.353Z,92.75
2023-10-20T07:03:38.344Z,92.69
2023-10-20T07:06:08.614Z,92.96
2023-10-20T07:08:36.477Z,92.17
2023-10-20T07:11:05.123Z,92.33
2023-10-20T07:13:35.868Z,92.29
2023-10-20T07:16:02.935Z,92.60
2023-10-20T07:18:33.276Z,92.14
2023-10-20T07:21:00.139Z,92.49
2023-10-20T07:23:27.856Z,92.30
2023-10-20T07:25:54.802Z,91.31
2023-10-20T07:28:23.124Z,91.36
2023-10-20T07:30:50.432Z,91.69
2023-10-20T07:33:17.340Z,91.61
2023-10-20T07:35:44.149Z,91.21
2023-10-20T07:38:10.998Z,91.33
2023-10-20T07:40:38.861Z,91.28
2023-10-20T07:43:08.121Z,91.32
2023-10-20T07:45:42.837Z,91.83
2023-10-20T07:48:11.130Z,91.55
2023-10-20T07:50:38.155Z,91.53
2023-10-20T07:53:05.136Z,91.34
2023-10-20T07:55:31.830Z,90.82
2023-10-20T07:57:58.439Z,90.77
2023-10-20T08:00:25.442Z,90.75
2023-10-20T08:02:54.954Z,91.03
2023-10-20T08:05:26.302Z,90.74
2023-10-20T08:07:54.388Z,90.30
2023-10-20T08:10:22.883Z,90.33
2023-10-20T08:12:50.401Z,90.09
2023-10-20T08:15:17.513Z,89.98
2023-10-20T08:17:46.979Z,89.65
2023-10-20T08:20:14.263Z,89.97
2023-10-20T08:22:41.761Z,90.26
2023-10-20T08:25:10.025Z,89.73
2023-10-20T08:27:37.751Z,90.03
2023-10-20T08:30:06.100Z,90.24
2023-10-20T08:32:32.972Z,90.47
2023-10-20T08:35:00.096Z,90.14
2023-10-20T08:37:27.134Z,90.49
2023-10-20T08:39:55.494Z,90.42
2023-10-20T08:42:25.707Z,90.72
2023-10-20T08:44:52.632Z,90.22
2023-10-20T08:47:27.176Z,89.85
2023-10-20T08:49:54.213Z,89.98
2023-10-20T08:52:20.933Z,90.55
2023-10-20T08:54:49.245Z,90.11
2023-10-20T08:57:15.966Z,89.83
2023-10-20T08:59:52.109Z,90.59
2023-10-20T09:02:20.200Z,90.18
2023-10-20T09:04:53.021Z,90.16
2023-10-20T09:07:22.717Z,90.02
2023-10-20T09:09:50.395Z,90.34
2023-10-20T09:12:17.122Z,90.90
2023-10-20T09:14:43.808Z,90.03
2023-10-20T09:17:21.307Z,89.49
2023-10-20T09:19:48.076Z,89.70
2023-10-20T09:22:14.871Z,89.43
2023-10-20T09:24:42.527Z,89.78
2023-10-20T09:27:09.674Z,89.58
2023-10-20T09:29:38.541Z,88.94
2023-10-20T09:32:06.295Z,89.10
2023-10-20T09:34:32.951Z,88.43
2023-10-20T09:37:01.900Z,88.52
2023-10-20T09:39:44.018Z,89.02
2023-10-20T09:42:14.881Z,89.00
2023-10-20T09:44:59.490Z,88.87
2023-10-20T09:47:30.666Z,89.16
2023-10-20T09:49:58.376Z,88.45
2023-10-20T09:52:25.506Z,88.38
2023-10-20T09:54:54.361Z,88.13
2023-10-20T09:57:22.181Z,88.58
2023-10-20T09:59:54.125Z,88.83
2023-10-20T10:02:31.948Z,88.95
2023-10-20T10:05:02.694Z,88.52
2023-10-20T10:07:35.815Z,89.16
2023-10-20T10:10:06.058Z,89.35
2023-10-20T10:12:34.112Z,88.77
2023-10-20T10:15:12.205Z,89.33
2023-10-20T10:17:47.433Z,88.90
2023-10-20T10:20:52.674Z,89.44
2023-10-20T10:23:33.136Z,89.15
2023-10-20T10:26:00.454Z,89.19
2023-10-20T10:28:27.307Z,88.98
2023-10-20T10:30:54.143Z,89.50
2023-10-20T10:33:25.135Z,90.09
2023-10-20T10:36:05.071Z,90.49
2023-10-20T10:38:43.395Z,91.35
2023-10-20T10:41:11.044Z,92.33
2023-10-20T10:43:38.330Z,92.79
2023-10-20T10:46:05.314Z,94.07
2023-10-20T10:48:35.492Z,93.46
2023-10-20T10:51:05.712Z,93.88
2023-10-20T10:53:32.615Z,94.58
2023-10-20T10:56:00.048Z,94.16
2023-10-20T10:58:26.873Z,94.36
2023-10-20T11:00:55.839Z,94.36
2023-10-20T11:03:25.819Z,94.24
2023-10-20T11:05:53.514Z,94.90
2023-10-20T11:08:20.983Z,94.95
2023-10-20T11:10:50.667Z,94.46
2023-10-20T11:13:21.142Z,94.16
2023-10-20T11:15:49.006Z,94.03
2023-10-20T11:18:18.148Z,94.38
2023-10-20T11:20:48.710Z,94.04
2023-10-20T11:23:20.467Z,94.12
2023-10-20T11:25:49.876Z,94.54
2023-10-20T11:28:17.129Z,94.43
2023-10-20T11:30:46.442Z,94.66
2023-10-20T11:33:16.464Z,94.32
2023-10-20T11:35:47.426Z,94.04
2023-10-20T11:38:17.608Z,94.82
2023-10-20T11:40:48.611Z,94.46
2023-10-20T11:43:15.506Z,94.23
2023-10-20T11:45:42.205Z,94.65
2023-10-20T11:48:11.847Z,94.10
2023-10-20T11:50:38.719Z,94.33
2023-10-20T11:53:06.719Z,94.43
2023-10-20T11:55:33.587Z,95.21
2023-10-20T11:58:01.918Z,94.67
2023-10-20T12:00:31.222Z,94.99
2023-10-20T12:02:58.117Z,94.46
2023-10-20T12:05:24.912Z,94.07
2023-10-20T12:07:51.951Z,94.39
2023-10-20T12:10:18.826Z,94.71
2023-10-20T12:12:45.440Z,94.86
2023-10-20T12:15:13.195Z,95.28
2023-10-20T12:17:42.432Z,95.11
2023-10-20T12:20:11.038Z,95.72
2023-10-20T12:22:37.827Z,94.80
2023-10-20T12:25:05.269Z,94.29
2023-10-20T12:27:32.421Z,94.42
2023-10-20T12:29:59.979Z,94.41
2023-10-20T12:32:28.344Z,94.48
2023-10-20T12:34:55.607Z,93.64
2023-10-20T12:37:22.284Z,94.14
2023-10-20T12:39:49.339Z,94.74
2023-10-20T12:42:16.012Z,94.56
2023-10-20T12:44:42.637Z,94.76
2023-10-20T12:47:09.237Z,94.96
2023-10-20T12:49:36.012Z,94.63
2023-10-20T12:52:04.143Z,93.54
2023-10-20T12:54:31.161Z,93.88
2023-10-20T12:57:00.103Z,94.09
2023-10-20T12:59:26.988Z,94.66
2023-10-20T13:01:54.389Z,93.77
2023-10-20T13:04:21.353Z,94.14
2023-10-20T13:06:59.307Z,94.47
2023-10-20T13:09:27.955Z,94.33
2023-10-20T13:11:57.548Z,93.36
2023-10-20T13:14:24.658Z,93.59
2023-10-20T13:16:51.867Z,93.67
2023-10-20T13:19:19.410Z,93.15
2023-10-20T13:21:46.241Z,93.80
2023-10-20T13:24:13.082Z,93.79
2023-10-20T13:26:39.902Z,94.49
2023-10-20T13:29:07.256Z,94.08
2023-10-20T13:31:35.134Z,94.57
2023-10-20T13:34:03.698Z,94.50
2023-10-20T13:36:30.737Z,94.52
2023-10-20T13:38:57.617Z,93.97
2023-10-20T13:41:25.004Z,94.76
2023-10-20T13:43:52.877Z,94.19
2023-10-20T13:46:20.058Z,94.48
2023-10-20T13:48:46.876Z,94.18
2023-10-20T13:51:13.668Z,94.45
2023-10-20T13:53:40.273Z,94.13
2023-10-20T13:56:07.105Z,93.77
2023-10-20T13:58:34.356Z,94.30
2023-10-20T14:01:00.976Z,94.10
2023-10-20T14:03:28.108Z,94.14
2023-10-20T14:05:56.221Z,93.68
2023-10-20T14:08:24.266Z,94.09
2023-10-20T14:10:51.419Z,93.96
2023-10-20T14:13:18.504Z,94.07
2023-10-20T14:15:45.847Z,94.05
2023-10-20T14:18:13.197Z,93.68
2023-10-20T14:20:40.588Z,93.70
2023-10-20T14:23:08.873Z,93.24
2023-10-20T14:25:36.305Z,93.63
2023-10-20T14:28:03.065Z,93.84
2023-10-20T14:30:29.727Z,93.85
2023-10-20T14:32:56.476Z,93.95
2023-10-20T14:35:23.658Z,93.40
2023-10-20T14:37:50.769Z,93.03
2023-10-20T14:40:17.613Z,93.38
2023-10-20T14:42:44.782Z,92.99
2023-10-20T14:45:12.829Z,92.82
2023-10-20T14:47:39.825Z,92.74
2023-10-20T14:50:07.231Z,92.53
2023-10-20T14:52:33.944Z,92.86
2023-10-20T14:55:00.671Z,92.75
2023-10-20T14:57:29.286Z,93.00
2023-10-20T14:59:57.215Z,93.17
2023-10-20T15:02:31.949Z,93.23
2023-10-20T15:05:02.661Z,93.88
2023-10-20T15:07:29.786Z,93.97
2023-10-20T15:09:56.465Z,94.35
2023-10-20T15:12:23.224Z,93.86
2023-10-20T15:14:49.965Z,93.63
2023-10-20T15:17:16.595Z,94.04
2023-10-20T15:19:43.529Z,94.14
2023-10-20T15:22:10.698Z,93.81
2023-10-20T15:24:37.401Z,93.75
2023-10-20T15:27:18.099Z,93.88
2023-10-20T15:29:46.989Z,94.48
2023-10-20T15:32:16.621Z,94.38
2023-10-20T15:34:43.523Z,94.89
2023-10-20T15:37:10.716Z,94.52
2023-10-20T15:39:49.336Z,94.33
2023-10-20T15:42:22.656Z,93.74
2023-10-20T15:44:49.568Z,93.94
2023-10-20T15:47:22.841Z,94.32
2023-10-20T15:49:58.860Z,94.36
2023-10-20T15:52:25.982Z,94.31
2023-10-20T15:54:53.732Z,94.37
2023-10-20T15:57:20.467Z,94.59
2023-10-20T15:59:47.214Z,94.69
2023-10-20T16:02:14.547Z,94.20
2023-10-20T16:04:41.279Z,94.46
2023-10-20T16:07:07.951Z,94.61
2023-10-20T16:09:35.056Z,95.00
2023-10-20T16:12:05.174Z,94.54
2023-10-20T16:14:31.874Z,95.20
2023-10-20T16:16:58.637Z,95.02
2023-10-20T16:19:25.394Z,94.69
2023-10-20T16:21:52.762Z,95.22
2023-10-20T16:24:19.796Z,95.41
2023-10-20T16:26:46.893Z,95.26
2023-10-20T16:29:16.255Z,94.92
2023-10-20T16:31:49.193Z,95.20
2023-10-20T16:34:16.307Z,95.40
2023-10-20T16:36:43.282Z,96.06
2023-10-20T16:39:13.483Z,95.76
2023-10-20T16:41:42.880Z,95.75
2023-10-20T16:44:09.936Z,95.77
2023-10-20T16:46:41.766Z,95.48
2023-10-20T16:49:09.204Z,95.63
2023-10-20T16:51:39.681Z,95.18
2023-10-20T16:54:06.607Z,95.31
2023-10-20T16:56:33.413Z,95.44
2023-10-20T16:59:00.805Z,95.69
2023-10-20T17:01:30.337Z,96.27
2023-10-20T17:03:57.351Z,96.41
2023-10-20T17:06:26.091Z,95.59
2023-10-20T17:08:52.794Z,96.00
2023-10-20T17:11:21.147Z,96.22
2023-10-20T17:13:48.479Z,96.03
2023-10-20T17:16:16.465Z,95.45
2023-10-20T17:18:43.466Z,95.82
2023-10-20T17:21:10.414Z,96.16
2023-10-20T17:23:37.190Z,96.32
2023-10-20T17:26:05.868Z,96.77
2023-10-20T17:28:33.194Z,96.54
2023-10-20T17:31:03.582Z,96.01
2023-10-20T17:33:30.527Z,95.92
2023-10-20T17:36:05.816Z,95.88
2023-10-20T17:38:33.663Z,96.83
2023-10-20T17:41:05.977Z,96.60
2023-10-20T17:43:33.632Z,96.50
2023-10-20T17:46:05.673Z,96.02
2023-10-20T17:48:32.948Z,95.88
2023-10-20T17:51:03.933Z,96.29
2023-10-20T17:53:32.401Z,96.29
2023-10-20T17:56:02.885Z,96.33
2023-10-20T17:58:31.181Z,96.64
2023-10-20T18:01:08.601Z,96.14
2023-10-20T18:03:43.911Z,96.81
2023-10-20T18:06:12.308Z,96.55
2023-10-20T18:08:44.204Z,96.71
2023-10-20T18:11:12.930Z,96.67
2023-10-20T18:13:41.394Z,96.97
2023-10-20T18:16:12.503Z,96.98
2023-10-20T18:18:40.893Z,97.57
2023-10-20T18:21:08.620Z,97.21
2023-10-20T18:23:35.874Z,96.86
2023-10-20T18:26:04.454Z,96.39
2023-10-20T18:28:31.987Z,96.21
2023-10-20T18:30:59.313Z,96.36
2023-10-20T18:33:29.850Z,96.71
2023-10-20T18:35:57.200Z,97.00
2023-10-20T18:38:24.015Z,96.47
2023-10-20T18:40:50.675Z,97.14
2023-10-20T18:43:17.742Z,97.33
2023-10-20T18:45:53.084Z,96.79
2023-10-20T18:48:20.099Z,97.36
2023-10-20T18:50:47.320Z,97.42
2023-10-20T18:53:14.064Z,98.04
2023-10-20T18:55:40.819Z,97.87
2023-10-20T18:58:07.653Z,98.28
2023-10-20T19:00:34.415Z,98.01
2023-10-20T19:03:01.267Z,98.00
2023-10-20T19:05:28.173Z,97.88
2023-10-20T19:07:55.021Z,97.30
2023-10-20T19:10:21.750Z,97.69
2023-10-20T19:12:49.312Z,97.79
2023-10-20T19:15:17.881Z,97.41
2023-10-20T19:17:44.758Z,97.25
2023-10-20T19:20:14.892Z,97.29
2023-10-20T19:22:42.117Z,97.69
2023-10-20T19:25:09.830Z,97.51
2023-10-20T19:27:36.624Z,97.12
2023-10-20T19:30:03.662Z,97.70
2023-10-20T19:32:32.686Z,97.22
2023-10-20T19:35:01.871Z,97.29
2023-10-20T19:37:28.772Z,97.49
2023-10-20T19:39:55.577Z,97.71
2023-10-20T19:42:22.406Z,97.49
2023-10-20T19:44:50.394Z,97.94
2023-10-20T19:47:17.201Z,97.72
2023-10-20T19:49:44.206Z,97.26
2023-10-20T19:52:11.054Z,97.32
2023-10-20T19:54:37.912Z,97.38
2023-10-20T19:57:04.928Z,97.73
2023-10-20T19:59:31.629Z,97.50
2023-10-20T20:01:58.480Z,97.86
2023-10-20T20:04:28.129Z,97.62
2023-10-20T20:06:54.965Z,97.40
2023-10-20T20:09:21.719Z,97.33
2023-10-20T20:11:49.943Z,97.74
2023-10-20T20:14:18.557Z,97.96
2023-10-20T20:17:04.518Z,98.00
2023-10-20T20:19:33.907Z,98.12
2023-10-20T20:22:01.096Z,98.42
2023-10-20T20:24:30.362Z,98.24
2023-10-20T20:26:58.637Z,97.73
2023-10-20T20:29:25.661Z,97.82
2023-10-20T20:31:52.376Z,97.64
2023-10-20T20:34:19.371Z,98.04
2023-10-20T20:36:49.063Z,97.96
2023-10-20T20:39:15.826Z,97.72
2023-10-20T20:41:42.787Z,98.32
2023-10-20T20:44:09.507Z,98.32
2023-10-20T20:46:36.380Z,98.19
2023-10-20T20:49:04.007Z,98.30
2023-10-20T20:51:32.867Z,98.37
2023-10-20T20:54:04.099Z,98.33
2023-10-20T20:56:31.063Z,98.83
2023-10-20T20:58:57.777Z,99.07
2023-10-20T21:01:24.771Z,98.62
2023-10-20T21:03:51.835Z,98.52
2023-10-20T21:06:20.816Z,98.82
2023-10-20T21:08:47.977Z,99.12
2023-10-20T21:11:15.952Z,98.82
2023-10-20T21:13:43.172Z,99.40
2023-10-20T21:16:11.975Z,99.43
2023-10-20T21:18:39.273Z,98.86
2023-10-20T21:21:14.896Z,99.56
2023-10-20T21:23:45.335Z,99.68
2023-10-20T21:26:15.633Z,99.99
2023-10-20T21:28:42.588Z,99.41
2023-10-20T21:31:09.690Z,99.37
2023-10-20T21:33:36.550Z,99.59
2023-10-20T21:36:04.326Z,99.56
2023-10-20T21:38:32.667Z,99.79
2023-10-20T21:40:59.586Z,99.40
2023-10-20T21:43:26.303Z,98.98
2023-10-20T21:45:59.420Z,98.92
2023-10-20T21:48:27.258Z,98.97
2023-10-20T21:51:05.201Z,99.08
2023-10-20T21:53:35.552Z,99.55
2023-10-20T21:56:04.848Z,99.78
2023-10-20T21:58:32.457Z,99.47
2023-10-20T22:01:00.071Z,99.26
2023-10-20T22:03:28.318Z,99.80
2023-10-20T22:05:55.754Z,99.46
2023-10-20T22:08:25.464Z,99.53
2023-10-20T22:10:52.370Z,99.90
2023-10-20T22:13:19.352Z,99.85
2023-10-20T22:15:49.369Z,99.60
2023-10-20T22:18:16.200Z,100.00
2023-10-20T22:20:44.072Z,100.00
2023-10-20T22:23:12.402Z,100.00
2023-10-20T22:25:42.416Z,100.00
2023-10-20T22:28:09.154Z,100.00
2023-10-20T22:30:35.965Z,100.00
2023-10-20T22:33:03.692Z,100.00
2023-10-20T22:35:31.363Z,100.00
2023-10-20T22:37:58.316Z,100.00
2023-10-20T22:40:25.191Z,100.00
2023-10-20T22:42:52.001Z,100.00
2023-10-20T22:45:23.975Z,100.00
2023-10-20T22:47:54.360Z,100.00
2023-10-20T22:50:21.346Z,100.00
2023-10-20T22:52:48.970Z,100.00
2023-10-20T22:55:15.712Z,100.00
2023-10-20T22:57:42.426Z,100.00
2023-10-20T23:00:10.869Z,100.00
2023-10-20T23:02:39.509Z,100.00
2023-10-20T23:05:08.046Z,100.00
2023-10-20T23:07:35.793Z,100.00
2023-10-20T23:10:04.641Z,100.00
2023-10-20T23:12:32.958Z,100.00
2023-10-20T23:14:59.992Z,100.00
2023-10-20T23:17:27.415Z,100.00
2023-10-20T23:19:55.796Z,100.00
2023-10-20T23:22:22.461Z,100.00
2023-10-20T23:24:49.184Z,100.00
2023-10-20T23:27:15.830Z,100.00
2023-10-20T23:29:42.550Z,100.00
2023-10-20T23:32:09.936Z,100.00
2023-10-20T23:34:37.063Z,100.00
2023-10-20T23:37:04.460Z,100.00
2023-10-20T23:39:34.010Z,100.00
2023-10-20T23:42:01.724Z,100.00
2023-10-20T23:44:29.343Z,100.00
2023-10-20T23:46:56.579Z,100.00
2023-10-20T23:49:23.899Z,100.00
2023-10-20T23:51:51.632Z,100.00
2023-10-20T23:54:18.404Z,100.00
2023-10-20T23:56:45.050Z,100.00
2023-10-20T23:59:11.699Z,100.00
